MSC Federica — HPQE — position and weather

sailwx.info

Track history (hours):
 
Tides and Currents Weather Stations Pressure Air Temp Water Temp Dewpoint Dewpoint Depression Visibility Wind Speed Wind Dir Waves Ship Positions

MSC Federica

Last reported at 2016-Jul-11 22:33 UTC. Time now 2016-Jul-25 10:01 UTC.
Position N 26°15' W 079°28'.
Warning: this ship's position is 13 days out of date.

Length 294 m; draft 9.3 m.

Type: Ship (hazmat cat A). MMSI: 357363000.

Date/timePositionNaut miles runAvg speedWind from/ knotsBaromVisibWave heightAir tempDewpointWater temp
2016-Jul-11 22:33N 26°15' W 079°28'1717.3
2016-Jul-11 21:33N 26°10' W 079°47'1616.4
2016-Jul-11 20:34N 26°06' W 080°04'3 3.0
2016-Jul-11 19:31N 26°04' W 080°07'0 0.0
2016-Jul-11 18:33N 26°04' W 080°07'0 0.0
2016-Jul-11 17:33N 26°04' W 080°07'0 0.0
2016-Jul-11 16:33N 26°04' W 080°07'0 0.0
2016-Jul-11 15:33N 26°04' W 080°07'0 0.0
2016-Jul-11 14:34N 26°04' W 080°07'0 0.0
2016-Jul-11 13:33N 26°04' W 080°07'0 0.0
2016-Jul-11 12:33N 26°04' W 080°07'0 0.0
2016-Jul-11 11:33N 26°04' W 080°07'0 0.0
2016-Jul-11 10:33N 26°04' W 080°07'0 0.0
2016-Jul-11 09:33N 26°04' W 080°07'1 0.8
2016-Jul-11 08:33N 26°05' W 080°07'6 6.2
2016-Jul-11 07:33N 26°05' W 079°60'6 6.3
2016-Jul-11 06:33N 26°07' W 079°53'2010.2
2016-Jul-11 04:34N 26°27' W 079°49'1110.5
2016-Jul-11 03:33N 26°38' W 079°47'1110.5
2016-Jul-11 02:33N 26°48' W 079°46'3310.7
2016-Jul-10 23:30N 27°21' W 079°45'  
2016-Jul-07 21:12N 34°01' W 076°38'1218.2
2016-Jul-07 20:33N 34°09' W 076°27'1818.0
2016-Jul-07 19:33N 34°21' W 076°12'5517.8
2016-Jul-07 16:27N 34°59' W 075°22'22018.5
2016-Jul-07 04:34N 38°31' W 074°13'1919.3
2016-Jul-07 03:33N 38°50' W 074°07'1919.2
2016-Jul-07 02:34N 39°09' W 074°02'1919.4
2016-Jul-07 01:33N 39°28' W 073°56'1818.1
2016-Jul-07 00:34N 39°45' W 073°52'1918.7
2016-Jul-06 23:34N 40°04' W 073°50'1818.5
2016-Jul-06 22:34N 40°22' W 073°48'1311.8
2016-Jul-06 21:27N 40°31' W 074°01'9 9.7
2016-Jul-06 20:32N 40°39' W 074°08'3 2.4
2016-Jul-06 19:27N 40°41' W 074°09'0 0.0
2016-Jul-06 18:15N 40°41' W 074°09'0 0.0
2016-Jul-06 17:12N 40°41' W 074°09'0 0.0
2016-Jul-06 16:33N 40°41' W 074°09'0 0.0
2016-Jul-06 15:33N 40°41' W 074°09'0 0.0
2016-Jul-06 14:33N 40°41' W 074°09'0 0.0
2016-Jul-06 13:33N 40°41' W 074°09'0 0.0
2016-Jul-06 12:33N 40°41' W 074°09'0 0.0
2016-Jul-06 11:30N 40°41' W 074°09'0 0.0
2016-Jul-06 10:30N 40°41' W 074°09'0 0.0
2016-Jul-06 09:33N 40°41' W 074°09'0 0.0
2016-Jul-06 08:33N 40°41' W 074°09'0 0.0
2016-Jul-06 07:33N 40°41' W 074°09'0 0.0
2016-Jul-06 06:33N 40°41' W 074°09'0 0.0
2016-Jul-06 05:33N 40°41' W 074°09'0 0.0
2016-Jul-06 04:33N 40°41' W 074°09'0 0.0
2016-Jul-06 03:33N 40°41' W 074°09'0 0.0
2016-Jul-06 02:33N 40°41' W 074°09'0 0.0
2016-Jul-06 01:33N 40°41' W 074°09'0 0.0
2016-Jul-06 00:33N 40°41' W 074°09'0 0.0
2016-Jul-05 23:33N 40°41' W 074°09'0 0.0
2016-Jul-05 22:33N 40°41' W 074°09'0 0.0
2016-Jul-05 21:33N 40°41' W 074°09'0 0.0
2016-Jul-05 20:33N 40°41' W 074°09'0 0.0
2016-Jul-05 19:33N 40°41' W 074°09'0 0.2
2016-Jul-05 18:33N 40°41' W 074°09'4 4.0
2016-Jul-05 17:33N 40°39' W 074°04'1110.8
2016-Jul-05 16:34N 40°30' W 073°57'41 8.2
2016-Jul-05 11:33N 39°51' W 073°39'11 2.2
2016-Jul-05 06:30N 39°40' W 073°38'2 1.2
2016-Jul-05 04:33N 39°38' W 073°39'1 1.0
2016-Jul-05 03:33N 39°37' W 073°39'1 1.2
2016-Jul-05 02:33N 39°35' W 073°40'1 1.2
2016-Jul-05 01:33N 39°34' W 073°40'2 1.1
2016-Jul-05 00:05N 39°33' W 073°39'1 1.2
2016-Jul-04 23:30N 39°32' W 073°39'1 1.3
2016-Jul-04 22:33N 39°31' W 073°39'1 1.4
2016-Jul-04 21:33N 39°29' W 073°38'1 1.4
2016-Jul-04 20:32N 39°28' W 073°38'1 1.1
2016-Jul-04 19:32N 39°27' W 073°37'1 0.7
2016-Jul-04 18:33N 39°27' W 073°36'1 0.7
2016-Jul-04 16:33N 39°27' W 073°38'1010.2
2016-Jul-04 15:33N 39°25' W 073°51'1312.9
2016-Jul-04 14:33N 39°16' W 074°02'1813.5
2016-Jul-04 13:15N 39°02' W 074°16'913.1
2016-Jul-04 12:33N 38°55' W 074°24'1512.4
2016-Jul-04 11:21N 38°45' W 074°38'1612.3
2016-Jul-04 10:04N 38°46' W 074°58'510.7
2016-Jul-04 09:33N 38°49' W 075°04'1514.9
2016-Jul-04 08:33N 39°03' W 075°10'1918.9
2016-Jul-04 07:33N 39°19' W 075°24'1717.0
2016-Jul-04 06:33N 39°34' W 075°33'1313.3
2016-Jul-04 05:33N 39°47' W 075°28'1010.1
2016-Jul-04 04:33N 39°51' W 075°16'7 6.5
2016-Jul-04 03:32N 39°54' W 075°08'0 0.0
2016-Jul-04 02:32N 39°54' W 075°08'0 0.0
2016-Jul-04 01:32N 39°54' W 075°08'0 0.0
2016-Jul-04 00:32N 39°54' W 075°08'0 0.0
2016-Jul-03 23:32N 39°54' W 075°08'0 0.0
2016-Jul-03 22:32N 39°54' W 075°08'0 0.0
2016-Jul-03 21:32N 39°54' W 075°08'0 0.0
2016-Jul-03 20:32N 39°54' W 075°08'0 0.0
2016-Jul-03 19:32N 39°54' W 075°08'0 0.0
2016-Jul-03 18:33N 39°54' W 075°08'0 0.0
2016-Jul-03 17:33N 39°54' W 075°08'0 0.0
2016-Jul-03 16:32N 39°54' W 075°08'0 0.0
2016-Jul-03 15:32N 39°54' W 075°08'0 0.0
2016-Jul-03 14:32N 39°54' W 075°08'0 0.0
2016-Jul-03 13:32N 39°54' W 075°08'0 0.0
2016-Jul-03 12:32N 39°54' W 075°08'0 0.0
2016-Jul-03 11:32N 39°54' W 075°08'0 0.0
2016-Jul-03 10:32N 39°54' W 075°08'1 1.2
2016-Jul-03 09:34N 39°53' W 075°09'10 9.5
2016-Jul-03 08:33N 39°51' W 075°21'1010.4
2016-Jul-03 07:33N 39°43' W 075°30'1111.1
2016-Jul-03 06:34N 39°32' W 075°33'1414.1
2016-Jul-03 05:34N 39°20' W 075°25'1515.5
2016-Jul-03 04:33N 39°07' W 075°13'1515.3
2016-Jul-03 03:33N 38°53' W 075°05'  
Track history (hours):
 
Tides and Currents Weather Stations Pressure Air Temp Water Temp Dewpoint Dewpoint Depression Visibility Wind Speed Wind Dir Waves Ship Positions

MSC Federica

Last reported at 2016-Jul-11 22:33 UTC. Time now 2016-Jul-25 10:01 UTC.
Position N 26°15' W 079°28'.
Warning: this ship's position is 13 days out of date.

Length 294 m; draft 9.3 m.

Type: Ship (hazmat cat A). MMSI: 357363000.

Date/timePositionNaut miles runAvg speedWind from/ knotsBaromVisibWave heightAir tempDewpointWater temp
2016-Jul-11 22:33N 26°15' W 079°28'1717.3
2016-Jul-11 21:33N 26°10' W 079°47'1616.4
2016-Jul-11 20:34N 26°06' W 080°04'3 3.0
2016-Jul-11 19:31N 26°04' W 080°07'0 0.0
2016-Jul-11 18:33N 26°04' W 080°07'0 0.0
2016-Jul-11 17:33N 26°04' W 080°07'0 0.0
2016-Jul-11 16:33N 26°04' W 080°07'0 0.0
2016-Jul-11 15:33N 26°04' W 080°07'0 0.0
2016-Jul-11 14:34N 26°04' W 080°07'0 0.0
2016-Jul-11 13:33N 26°04' W 080°07'0 0.0
2016-Jul-11 12:33N 26°04' W 080°07'0 0.0
2016-Jul-11 11:33N 26°04' W 080°07'0 0.0
2016-Jul-11 10:33N 26°04' W 080°07'0 0.0
2016-Jul-11 09:33N 26°04' W 080°07'1 0.8
2016-Jul-11 08:33N 26°05' W 080°07'6 6.2
2016-Jul-11 07:33N 26°05' W 079°60'6 6.3
2016-Jul-11 06:33N 26°07' W 079°53'2010.2
2016-Jul-11 04:34N 26°27' W 079°49'1110.5
2016-Jul-11 03:33N 26°38' W 079°47'1110.5
2016-Jul-11 02:33N 26°48' W 079°46'3310.7
2016-Jul-10 23:30N 27°21' W 079°45'  
2016-Jul-07 21:12N 34°01' W 076°38'1218.2
2016-Jul-07 20:33N 34°09' W 076°27'1818.0
2016-Jul-07 19:33N 34°21' W 076°12'5517.8
2016-Jul-07 16:27N 34°59' W 075°22'22018.5
2016-Jul-07 04:34N 38°31' W 074°13'1919.3
2016-Jul-07 03:33N 38°50' W 074°07'1919.2
2016-Jul-07 02:34N 39°09' W 074°02'1919.4
2016-Jul-07 01:33N 39°28' W 073°56'1818.1
2016-Jul-07 00:34N 39°45' W 073°52'1918.7
2016-Jul-06 23:34N 40°04' W 073°50'1818.5
2016-Jul-06 22:34N 40°22' W 073°48'1311.8
2016-Jul-06 21:27N 40°31' W 074°01'9 9.7
2016-Jul-06 20:32N 40°39' W 074°08'3 2.4
2016-Jul-06 19:27N 40°41' W 074°09'0 0.0
2016-Jul-06 18:15N 40°41' W 074°09'0 0.0
2016-Jul-06 17:12N 40°41' W 074°09'0 0.0
2016-Jul-06 16:33N 40°41' W 074°09'0 0.0
2016-Jul-06 15:33N 40°41' W 074°09'0 0.0
2016-Jul-06 14:33N 40°41' W 074°09'0 0.0
2016-Jul-06 13:33N 40°41' W 074°09'0 0.0
2016-Jul-06 12:33N 40°41' W 074°09'0 0.0
2016-Jul-06 11:30N 40°41' W 074°09'0 0.0
2016-Jul-06 10:30N 40°41' W 074°09'0 0.0
2016-Jul-06 09:33N 40°41' W 074°09'0 0.0
2016-Jul-06 08:33N 40°41' W 074°09'0 0.0
2016-Jul-06 07:33N 40°41' W 074°09'0 0.0
2016-Jul-06 06:33N 40°41' W 074°09'0 0.0
2016-Jul-06 05:33N 40°41' W 074°09'0 0.0
2016-Jul-06 04:33N 40°41' W 074°09'0 0.0
2016-Jul-06 03:33N 40°41' W 074°09'0 0.0
2016-Jul-06 02:33N 40°41' W 074°09'0 0.0
2016-Jul-06 01:33N 40°41' W 074°09'0 0.0
2016-Jul-06 00:33N 40°41' W 074°09'0 0.0
2016-Jul-05 23:33N 40°41' W 074°09'0 0.0
2016-Jul-05 22:33N 40°41' W 074°09'0 0.0
2016-Jul-05 21:33N 40°41' W 074°09'0 0.0
2016-Jul-05 20:33N 40°41' W 074°09'0 0.0
2016-Jul-05 19:33N 40°41' W 074°09'0 0.2
2016-Jul-05 18:33N 40°41' W 074°09'4 4.0
2016-Jul-05 17:33N 40°39' W 074°04'1110.8
2016-Jul-05 16:34N 40°30' W 073°57'41 8.2
2016-Jul-05 11:33N 39°51' W 073°39'11 2.2
2016-Jul-05 06:30N 39°40' W 073°38'2 1.2
2016-Jul-05 04:33N 39°38' W 073°39'1 1.0
2016-Jul-05 03:33N 39°37' W 073°39'1 1.2
2016-Jul-05 02:33N 39°35' W 073°40'1 1.2
2016-Jul-05 01:33N 39°34' W 073°40'2 1.1
2016-Jul-05 00:05N 39°33' W 073°39'1 1.2
2016-Jul-04 23:30N 39°32' W 073°39'1 1.3
2016-Jul-04 22:33N 39°31' W 073°39'1 1.4
2016-Jul-04 21:33N 39°29' W 073°38'1 1.4
2016-Jul-04 20:32N 39°28' W 073°38'1 1.1
2016-Jul-04 19:32N 39°27' W 073°37'1 0.7
2016-Jul-04 18:33N 39°27' W 073°36'1 0.7
2016-Jul-04 16:33N 39°27' W 073°38'1010.2
2016-Jul-04 15:33N 39°25' W 073°51'1312.9
2016-Jul-04 14:33N 39°16' W 074°02'1813.5
2016-Jul-04 13:15N 39°02' W 074°16'913.1
2016-Jul-04 12:33N 38°55' W 074°24'1512.4
2016-Jul-04 11:21N 38°45' W 074°38'1612.3
2016-Jul-04 10:04N 38°46' W 074°58'510.7
2016-Jul-04 09:33N 38°49' W 075°04'1514.9
2016-Jul-04 08:33N 39°03' W 075°10'1918.9
2016-Jul-04 07:33N 39°19' W 075°24'1717.0
2016-Jul-04 06:33N 39°34' W 075°33'1313.3
2016-Jul-04 05:33N 39°47' W 075°28'1010.1
2016-Jul-04 04:33N 39°51' W 075°16'7 6.5
2016-Jul-04 03:32N 39°54' W 075°08'0 0.0
2016-Jul-04 02:32N 39°54' W 075°08'0 0.0
2016-Jul-04 01:32N 39°54' W 075°08'0 0.0
2016-Jul-04 00:32N 39°54' W 075°08'0 0.0
2016-Jul-03 23:32N 39°54' W 075°08'0 0.0
2016-Jul-03 22:32N 39°54' W 075°08'0 0.0
2016-Jul-03 21:32N 39°54' W 075°08'0 0.0
2016-Jul-03 20:32N 39°54' W 075°08'0 0.0
2016-Jul-03 19:32N 39°54' W 075°08'0 0.0
2016-Jul-03 18:33N 39°54' W 075°08'0 0.0
2016-Jul-03 17:33N 39°54' W 075°08'0 0.0
2016-Jul-03 16:32N 39°54' W 075°08'0 0.0
2016-Jul-03 15:32N 39°54' W 075°08'0 0.0
2016-Jul-03 14:32N 39°54' W 075°08'0 0.0
2016-Jul-03 13:32N 39°54' W 075°08'0 0.0
2016-Jul-03 12:32N 39°54' W 075°08'0 0.0
2016-Jul-03 11:32N 39°54' W 075°08'0 0.0
2016-Jul-03 10:32N 39°54' W 075°08'1 1.2
2016-Jul-03 09:34N 39°53' W 075°09'10 9.5
2016-Jul-03 08:33N 39°51' W 075°21'1010.4
2016-Jul-03 07:33N 39°43' W 075°30'1111.1
2016-Jul-03 06:34N 39°32' W 075°33'1414.1
2016-Jul-03 05:34N 39°20' W 075°25'1515.5
2016-Jul-03 04:33N 39°07' W 075°13'1515.3
2016-Jul-03 03:33N 38°53' W 075°05'  

Dump ship's entire track history